sensor_id;sensor_type;location;lat;lon;timestamp;P1;durP1;ratioP1;P2;durP2;ratioP2
64738;SDS011;51175;51.186;0.276;2024-03-08T00:00:18;64.57;;;41.50;;
64738;SDS011;51175;51.186;0.276;2024-03-08T00:00:49;63.78;;;42.47;;
64738;SDS011;51175;51.186;0.276;2024-03-08T00:01:21;62.40;;;40.63;;
64738;SDS011;51175;51.186;0.276;2024-03-08T00:01:53;65.43;;;42.15;;
64738;SDS011;51175;51.186;0.276;2024-03-08T00:02:24;62.83;;;41.92;;
64738;SDS011;51175;51.186;0.276;2024-03-08T00:02:55;63.35;;;42.33;;
64738;SDS011;51175;51.186;0.276;2024-03-08T00:03:25;63.65;;;42.13;;
64738;SDS011;51175;51.186;0.276;2024-03-08T00:03:57;68.45;;;43.53;;
64738;SDS011;51175;51.186;0.276;2024-03-08T00:04:27;64.43;;;43.38;;
64738;SDS011;51175;51.186;0.276;2024-03-08T00:04:58;62.05;;;42.42;;
64738;SDS011;51175;51.186;0.276;2024-03-08T00:05:29;62.90;;;42.58;;
64738;SDS011;51175;51.186;0.276;2024-03-08T00:06:02;69.32;;;41.90;;
64738;SDS011;51175;51.186;0.276;2024-03-08T00:06:34;65.38;;;42.35;;
64738;SDS011;51175;51.186;0.276;2024-03-08T00:07:05;61.88;;;43.92;;
64738;SDS011;51175;51.186;0.276;2024-03-08T00:07:36;66.00;;;42.08;;
64738;SDS011;51175;51.186;0.276;2024-03-08T00:08:13;64.00;;;42.72;;
64738;SDS011;51175;51.186;0.276;2024-03-08T00:08:43;65.78;;;43.95;;
64738;SDS011;51175;51.186;0.276;2024-03-08T00:09:14;63.85;;;42.40;;
64738;SDS011;51175;51.186;0.276;2024-03-08T00:09:45;60.13;;;40.70;;
64738;SDS011;51175;51.186;0.276;2024-03-08T00:10:16;66.85;;;42.80;;
64738;SDS011;51175;51.186;0.276;2024-03-08T00:10:47;62.03;;;42.35;;
64738;SDS011;51175;51.186;0.276;2024-03-08T00:11:17;65.45;;;42.47;;
64738;SDS011;51175;51.186;0.276;2024-03-08T00:11:48;64.93;;;40.65;;
64738;SDS011;51175;51.186;0.276;2024-03-08T00:12:20;64.75;;;41.00;;
64738;SDS011;51175;51.186;0.276;2024-03-08T00:12:50;64.95;;;43.03;;
64738;SDS011;51175;51.186;0.276;2024-03-08T00:13:23;68.38;;;43.78;;
64738;SDS011;51175;51.186;0.276;2024-03-08T00:13:55;66.70;;;41.03;;
64738;SDS011;51175;51.186;0.276;2024-03-08T00:14:29;63.90;;;43.60;;
64738;SDS011;51175;51.186;0.276;2024-03-08T00:14:59;67.75;;;44.22;;
64738;SDS011;51175;51.186;0.276;2024-03-08T00:15:30;59.75;;;41.80;;
64738;SDS011;51175;51.186;0.276;2024-03-08T00:16:02;63.25;;;42.15;;
64738;SDS011;51175;51.186;0.276;2024-03-08T00:16:33;62.60;;;41.88;;
64738;SDS011;51175;51.186;0.276;2024-03-08T00:17:05;59.38;;;40.05;;
64738;SDS011;51175;51.186;0.276;2024-03-08T00:17:35;65.53;;;42.13;;
64738;SDS011;51175;51.186;0.276;2024-03-08T00:18:06;60.33;;;43.42;;
64738;SDS011;51175;51.186;0.276;2024-03-08T00:18:36;62.40;;;42.95;;
64738;SDS011;51175;51.186;0.276;2024-03-08T00:19:07;63.58;;;41.40;;
64738;SDS011;51175;51.186;0.276;2024-03-08T00:19:38;64.88;;;41.50;;
64738;SDS011;51175;51.186;0.276;2024-03-08T00:20:09;66.03;;;43.33;;
64738;SDS011;51175;51.186;0.276;2024-03-08T00:20:43;62.88;;;41.83;;
64738;SDS011;51175;51.186;0.276;2024-03-08T00:21:15;63.25;;;43.65;;
64738;SDS011;51175;51.186;0.276;2024-03-08T00:21:45;64.60;;;44.38;;
64738;SDS011;51175;51.186;0.276;2024-03-08T00:22:16;68.80;;;43.38;;
64738;SDS011;51175;51.186;0.276;2024-03-08T00:22:47;64.82;;;40.08;;
64738;SDS011;51175;51.186;0.276;2024-03-08T00:23:17;68.68;;;43.55;;
64738;SDS011;51175;51.186;0.276;2024-03-08T00:23:48;64.35;;;42.50;;
64738;SDS011;51175;51.186;0.276;2024-03-08T00:24:18;62.95;;;42.55;;
64738;SDS011;51175;51.186;0.276;2024-03-08T00:24:54;66.68;;;43.05;;
64738;SDS011;51175;51.186;0.276;2024-03-08T00:25:25;65.22;;;43.20;;
64738;SDS011;51175;51.186;0.276;2024-03-08T00:25:56;62.78;;;42.28;;
64738;SDS011;51175;51.186;0.276;2024-03-08T00:26:26;60.35;;;40.72;;
64738;SDS011;51175;51.186;0.276;2024-03-08T00:26:57;63.22;;;44.10;;
64738;SDS011;51175;51.186;0.276;2024-03-08T00:27:28;65.63;;;42.75;;
64738;SDS011;51175;51.186;0.276;2024-03-08T00:28:00;64.35;;;42.22;;
64738;SDS011;51175;51.186;0.276;2024-03-08T00:28:31;65.95;;;41.35;;
64738;SDS011;51175;51.186;0.276;2024-03-08T00:29:01;65.30;;;41.85;;
64738;SDS011;51175;51.186;0.276;2024-03-08T00:29:32;60.30;;;39.13;;
64738;SDS011;51175;51.186;0.276;2024-03-08T00:30:02;63.05;;;40.53;;
64738;SDS011;51175;51.186;0.276;2024-03-08T00:30:33;66.05;;;43.20;;
64738;SDS011;51175;51.186;0.276;2024-03-08T00:31:04;67.38;;;40.25;;
64738;SDS011;51175;51.186;0.276;2024-03-08T00:31:37;70.97;;;44.95;;
64738;SDS011;51175;51.186;0.276;2024-03-08T00:32:07;63.97;;;41.70;;
64738;SDS011;51175;51.186;0.276;2024-03-08T00:32:38;69.75;;;43.08;;
64738;SDS011;51175;51.186;0.276;2024-03-08T00:33:08;67.45;;;42.85;;
64738;SDS011;51175;51.186;0.276;2024-03-08T00:33:39;60.80;;;42.42;;
64738;SDS011;51175;51.186;0.276;2024-03-08T00:34:09;65.65;;;41.60;;
64738;SDS011;51175;51.186;0.276;2024-03-08T00:34:41;67.25;;;43.05;;
64738;SDS011;51175;51.186;0.276;2024-03-08T00:35:12;62.10;;;40.97;;
64738;SDS011;51175;51.186;0.276;2024-03-08T00:35:43;67.28;;;41.53;;
64738;SDS011;51175;51.186;0.276;2024-03-08T00:36:13;69.75;;;43.05;;
64738;SDS011;51175;51.186;0.276;2024-03-08T00:36:44;66.32;;;42.40;;
64738;SDS011;51175;51.186;0.276;2024-03-08T00:37:15;67.95;;;42.30;;
64738;SDS011;51175;51.186;0.276;2024-03-08T00:37:45;66.65;;;41.90;;
64738;SDS011;51175;51.186;0.276;2024-03-08T00:39:33;63.25;;;42.00;;
64738;SDS011;51175;51.186;0.276;2024-03-08T00:40:03;73.40;;;43.05;;
64738;SDS011;51175;51.186;0.276;2024-03-08T00:40:37;63.83;;;42.22;;
64738;SDS011;51175;51.186;0.276;2024-03-08T00:41:07;68.90;;;42.53;;
64738;SDS011;51175;51.186;0.276;2024-03-08T00:41:38;70.13;;;44.17;;
64738;SDS011;51175;51.186;0.276;2024-03-08T00:42:08;76.25;;;42.50;;
64738;SDS011;51175;51.186;0.276;2024-03-08T00:42:39;61.83;;;41.47;;
64738;SDS011;51175;51.186;0.276;2024-03-08T00:43:13;62.10;;;40.70;;
64738;SDS011;51175;51.186;0.276;2024-03-08T00:43:45;69.95;;;42.30;;
64738;SDS011;51175;51.186;0.276;2024-03-08T00:44:17;62.67;;;40.95;;
64738;SDS011;51175;51.186;0.276;2024-03-08T00:44:48;67.20;;;42.15;;
64738;SDS011;51175;51.186;0.276;2024-03-08T00:45:21;65.30;;;40.00;;
64738;SDS011;51175;51.186;0.276;2024-03-08T00:45:53;69.22;;;42.08;;
64738;SDS011;51175;51.186;0.276;2024-03-08T00:46:24;66.30;;;42.38;;
64738;SDS011;51175;51.186;0.276;2024-03-08T00:46:55;67.38;;;41.63;;
64738;SDS011;51175;51.186;0.276;2024-03-08T00:47:26;65.07;;;40.95;;
64738;SDS011;51175;51.186;0.276;2024-03-08T00:47:57;70.85;;;43.72;;
64738;SDS011;51175;51.186;0.276;2024-03-08T00:48:27;61.83;;;41.78;;
64738;SDS011;51175;51.186;0.276;2024-03-08T00:48:58;68.68;;;41.53;;
64738;SDS011;51175;51.186;0.276;2024-03-08T00:49:28;68.97;;;42.95;;
64738;SDS011;51175;51.186;0.276;2024-03-08T00:49:59;66.07;;;40.95;;
64738;SDS011;51175;51.186;0.276;2024-03-08T00:50:29;61.47;;;41.40;;
64738;SDS011;51175;51.186;0.276;2024-03-08T00:50:59;64.45;;;41.78;;
64738;SDS011;51175;51.186;0.276;2024-03-08T00:51:32;63.33;;;41.15;;
64738;SDS011;51175;51.186;0.276;2024-03-08T00:52:02;62.38;;;41.03;;
64738;SDS011;51175;51.186;0.276;2024-03-08T00:52:33;69.22;;;41.90;;
64738;SDS011;51175;51.186;0.276;2024-03-08T00:53:04;68.60;;;41.88;;
64738;SDS011;51175;51.186;0.276;2024-03-08T00:53:35;64.07;;;40.45;;
64738;SDS011;51175;51.186;0.276;2024-03-08T00:54:06;68.88;;;42.25;;
64738;SDS011;51175;51.186;0.276;2024-03-08T00:54:36;58.42;;;40.05;;
64738;SDS011;51175;51.186;0.276;2024-03-08T00:55:07;61.55;;;40.55;;
64738;SDS011;51175;51.186;0.276;2024-03-08T00:55:40;66.90;;;44.00;;
64738;SDS011;51175;51.186;0.276;2024-03-08T00:56:11;65.90;;;41.63;;
64738;SDS011;51175;51.186;0.276;2024-03-08T00:56:44;61.25;;;39.33;;
64738;SDS011;51175;51.186;0.276;2024-03-08T00:57:17;74.93;;;43.25;;
64738;SDS011;51175;51.186;0.276;2024-03-08T00:57:48;68.40;;;42.20;;
64738;SDS011;51175;51.186;0.276;2024-03-08T00:58:19;59.97;;;38.83;;
64738;SDS011;51175;51.186;0.276;2024-03-08T00:58:49;67.35;;;43.88;;
64738;SDS011;51175;51.186;0.276;2024-03-08T00:59:23;63.65;;;41.10;;
64738;SDS011;51175;51.186;0.276;2024-03-08T00:59:54;62.72;;;40.72;;
64738;SDS011;51175;51.186;0.276;2024-03-08T01:00:24;67.95;;;41.65;;
64738;SDS011;51175;51.186;0.276;2024-03-08T01:00:55;64.85;;;41.50;;
64738;SDS011;51175;51.186;0.276;2024-03-08T01:01:27;68.55;;;41.97;;
64738;SDS011;51175;51.186;0.276;2024-03-08T01:01:58;68.35;;;43.10;;
64738;SDS011;51175;51.186;0.276;2024-03-08T01:02:30;65.95;;;41.38;;
64738;SDS011;51175;51.186;0.276;2024-03-08T01:03:00;66.53;;;39.55;;
64738;SDS011;51175;51.186;0.276;2024-03-08T01:03:31;58.47;;;39.70;;
64738;SDS011;51175;51.186;0.276;2024-03-08T01:04:01;63.75;;;41.92;;
64738;SDS011;51175;51.186;0.276;2024-03-08T01:04:32;67.90;;;43.38;;
64738;SDS011;51175;51.186;0.276;2024-03-08T01:05:03;72.10;;;44.20;;
64738;SDS011;51175;51.186;0.276;2024-03-08T01:05:37;64.80;;;42.40;;
64738;SDS011;51175;51.186;0.276;2024-03-08T01:06:07;63.17;;;41.55;;
64738;SDS011;51175;51.186;0.276;2024-03-08T01:06:38;66.75;;;42.33;;
64738;SDS011;51175;51.186;0.276;2024-03-08T01:07:08;61.67;;;40.67;;
64738;SDS011;51175;51.186;0.276;2024-03-08T01:07:40;70.90;;;42.47;;
64738;SDS011;51175;51.186;0.276;2024-03-08T01:08:12;61.08;;;41.40;;
64738;SDS011;51175;51.186;0.276;2024-03-08T01:08:46;63.20;;;40.80;;
64738;SDS011;51175;51.186;0.276;2024-03-08T01:09:16;60.72;;;40.00;;
64738;SDS011;51175;51.186;0.276;2024-03-08T01:09:47;64.93;;;42.42;;
64738;SDS011;51175;51.186;0.276;2024-03-08T01:10:18;60.55;;;39.80;;
64738;SDS011;51175;51.186;0.276;2024-03-08T01:10:48;64.05;;;41.17;;
64738;SDS011;51175;51.186;0.276;2024-03-08T01:11:20;64.13;;;42.28;;
64738;SDS011;51175;51.186;0.276;2024-03-08T01:11:51;65.53;;;42.58;;
64738;SDS011;51175;51.186;0.276;2024-03-08T01:12:23;62.92;;;41.47;;
64738;SDS011;51175;51.186;0.276;2024-03-08T01:12:53;64.40;;;42.20;;
64738;SDS011;51175;51.186;0.276;2024-03-08T01:13:26;66.30;;;39.65;;
64738;SDS011;51175;51.186;0.276;2024-03-08T01:13:57;75.75;;;43.75;;
64738;SDS011;51175;51.186;0.276;2024-03-08T01:14:27;61.63;;;40.33;;
64738;SDS011;51175;51.186;0.276;2024-03-08T01:15:04;66.00;;;41.67;;
64738;SDS011;51175;51.186;0.276;2024-03-08T01:15:34;68.35;;;41.90;;
64738;SDS011;51175;51.186;0.276;2024-03-08T01:16:05;67.72;;;40.35;;
64738;SDS011;51175;51.186;0.276;2024-03-08T01:16:36;60.03;;;38.97;;
64738;SDS011;51175;51.186;0.276;2024-03-08T01:17:06;64.57;;;40.03;;
64738;SDS011;51175;51.186;0.276;2024-03-08T01:17:37;68.22;;;42.58;;
64738;SDS011;51175;51.186;0.276;2024-03-08T01:18:08;69.07;;;39.97;;
64738;SDS011;51175;51.186;0.276;2024-03-08T01:18:38;70.32;;;43.53;;
64738;SDS011;51175;51.186;0.276;2024-03-08T01:19:09;65.60;;;40.17;;
64738;SDS011;51175;51.186;0.276;2024-03-08T01:19:39;64.43;;;39.85;;
64738;SDS011;51175;51.186;0.276;2024-03-08T01:20:09;65.63;;;41.00;;
64738;SDS011;51175;51.186;0.276;2024-03-08T01:20:43;65.75;;;43.05;;
64738;SDS011;51175;51.186;0.276;2024-03-08T01:21:13;65.55;;;41.75;;
64738;SDS011;51175;51.186;0.276;2024-03-08T01:21:44;68.63;;;42.92;;
64738;SDS011;51175;51.186;0.276;2024-03-08T01:22:14;60.67;;;39.03;;
64738;SDS011;51175;51.186;0.276;2024-03-08T01:22:45;62.45;;;39.17;;
64738;SDS011;51175;51.186;0.276;2024-03-08T01:23:15;63.38;;;38.95;;
64738;SDS011;51175;51.186;0.276;2024-03-08T01:23:47;61.60;;;39.45;;
64738;SDS011;51175;51.186;0.276;2024-03-08T01:24:17;60.83;;;40.50;;
64738;SDS011;51175;51.186;0.276;2024-03-08T01:24:48;62.90;;;40.85;;
64738;SDS011;51175;51.186;0.276;2024-03-08T01:25:18;58.90;;;39.05;;
64738;SDS011;51175;51.186;0.276;2024-03-08T01:25:49;58.15;;;38.72;;
64738;SDS011;51175;51.186;0.276;2024-03-08T01:26:26;65.78;;;40.70;;
64738;SDS011;51175;51.186;0.276;2024-03-08T01:26:57;62.67;;;38.70;;
64738;SDS011;51175;51.186;0.276;2024-03-08T01:27:27;64.10;;;40.13;;
64738;SDS011;51175;51.186;0.276;2024-03-08T01:27:57;62.60;;;38.85;;
64738;SDS011;51175;51.186;0.276;2024-03-08T01:28:29;57.55;;;38.60;;
64738;SDS011;51175;51.186;0.276;2024-03-08T01:29:01;59.13;;;39.17;;
64738;SDS011;51175;51.186;0.276;2024-03-08T01:29:33;58.90;;;40.67;;
64738;SDS011;51175;51.186;0.276;2024-03-08T01:30:03;60.20;;;38.15;;
64738;SDS011;51175;51.186;0.276;2024-03-08T01:30:34;59.95;;;39.35;;
64738;SDS011;51175;51.186;0.276;2024-03-08T01:31:06;57.92;;;38.75;;
64738;SDS011;51175;51.186;0.276;2024-03-08T01:31:37;59.80;;;37.60;;
64738;SDS011;51175;51.186;0.276;2024-03-08T01:32:07;61.05;;;39.15;;
64738;SDS011;51175;51.186;0.276;2024-03-08T01:32:38;67.65;;;41.10;;
64738;SDS011;51175;51.186;0.276;2024-03-08T01:33:08;60.30;;;38.58;;
64738;SDS011;51175;51.186;0.276;2024-03-08T01:33:39;60.42;;;38.78;;
64738;SDS011;51175;51.186;0.276;2024-03-08T01:34:10;64.45;;;39.38;;
64738;SDS011;51175;51.186;0.276;2024-03-08T01:34:40;61.72;;;40.08;;
64738;SDS011;51175;51.186;0.276;2024-03-08T01:35:11;61.22;;;38.17;;
64738;SDS011;51175;51.186;0.276;2024-03-08T01:35:42;57.33;;;38.60;;
64738;SDS011;51175;51.186;0.276;2024-03-08T01:36:12;57.08;;;36.90;;
64738;SDS011;51175;51.186;0.276;2024-03-08T01:36:45;62.63;;;39.67;;
64738;SDS011;51175;51.186;0.276;2024-03-08T01:37:16;62.42;;;37.83;;
64738;SDS011;51175;51.186;0.276;2024-03-08T01:37:46;60.55;;;37.67;;
64738;SDS011;51175;51.186;0.276;2024-03-08T01:38:18;57.67;;;38.75;;
64738;SDS011;51175;51.186;0.276;2024-03-08T01:38:49;58.13;;;36.00;;
64738;SDS011;51175;51.186;0.276;2024-03-08T01:39:20;60.92;;;37.38;;
64738;SDS011;51175;51.186;0.276;2024-03-08T01:39:52;59.70;;;38.33;;
64738;SDS011;51175;51.186;0.276;2024-03-08T01:40:22;57.05;;;38.83;;
64738;SDS011;51175;51.186;0.276;2024-03-08T01:40:53;58.88;;;38.42;;
64738;SDS011;51175;51.186;0.276;2024-03-08T01:41:23;61.88;;;37.55;;
64738;SDS011;51175;51.186;0.276;2024-03-08T01:41:54;61.35;;;38.92;;
64738;SDS011;51175;51.186;0.276;2024-03-08T01:42:24;57.17;;;37.22;;
64738;SDS011;51175;51.186;0.276;2024-03-08T01:42:55;59.53;;;38.00;;
64738;SDS011;51175;51.186;0.276;2024-03-08T01:43:26;65.65;;;39.42;;
64738;SDS011;51175;51.186;0.276;2024-03-08T01:44:01;61.22;;;38.53;;
64738;SDS011;51175;51.186;0.276;2024-03-08T01:44:33;60.45;;;38.92;;
64738;SDS011;51175;51.186;0.276;2024-03-08T01:45:04;57.10;;;38.10;;
64738;SDS011;51175;51.186;0.276;2024-03-08T01:45:38;57.50;;;35.90;;
64738;SDS011;51175;51.186;0.276;2024-03-08T01:46:09;58.58;;;36.38;;
64738;SDS011;51175;51.186;0.276;2024-03-08T01:46:45;59.92;;;36.75;;
64738;SDS011;51175;51.186;0.276;2024-03-08T01:47:17;58.75;;;38.50;;
64738;SDS011;51175;51.186;0.276;2024-03-08T01:47:48;57.33;;;38.08;;
64738;SDS011;51175;51.186;0.276;2024-03-08T01:48:19;58.45;;;36.33;;
64738;SDS011;51175;51.186;0.276;2024-03-08T01:48:53;66.05;;;36.67;;
64738;SDS011;51175;51.186;0.276;2024-03-08T01:49:25;58.67;;;36.90;;
64738;SDS011;51175;51.186;0.276;2024-03-08T01:49:56;61.67;;;38.75;;
64738;SDS011;51175;51.186;0.276;2024-03-08T01:50:28;57.85;;;36.88;;
64738;SDS011;51175;51.186;0.276;2024-03-08T01:50:59;60.38;;;36.10;;
64738;SDS011;51175;51.186;0.276;2024-03-08T01:51:30;62.45;;;40.00;;
64738;SDS011;51175;51.186;0.276;2024-03-08T01:52:01;56.60;;;35.67;;
64738;SDS011;51175;51.186;0.276;2024-03-08T01:52:32;61.75;;;38.63;;
64738;SDS011;51175;51.186;0.276;2024-03-08T01:53:04;62.75;;;39.75;;
64738;SDS011;51175;51.186;0.276;2024-03-08T01:53:35;63.35;;;39.35;;
64738;SDS011;51175;51.186;0.276;2024-03-08T01:54:06;58.85;;;37.83;;
64738;SDS011;51175;51.186;0.276;2024-03-08T01:54:37;55.10;;;36.28;;
64738;SDS011;51175;51.186;0.276;2024-03-08T01:55:07;61.13;;;37.17;;
64738;SDS011;51175;51.186;0.276;2024-03-08T01:55:38;55.97;;;38.17;;
64738;SDS011;51175;51.186;0.276;2024-03-08T01:56:09;59.80;;;39.45;;
64738;SDS011;51175;51.186;0.276;2024-03-08T01:56:40;58.83;;;37.50;;
64738;SDS011;51175;51.186;0.276;2024-03-08T01:57:11;59.22;;;38.10;;
64738;SDS011;51175;51.186;0.276;2024-03-08T01:57:42;57.42;;;37.45;;
64738;SDS011;51175;51.186;0.276;2024-03-08T01:58:13;57.88;;;36.50;;
64738;SDS011;51175;51.186;0.276;2024-03-08T01:58:50;58.83;;;37.60;;
64738;SDS011;51175;51.186;0.276;2024-03-08T01:59:20;66.47;;;38.13;;
64738;SDS011;51175;51.186;0.276;2024-03-08T01:59:51;52.40;;;36.03;;
64738;SDS011;51175;51.186;0.276;2024-03-08T02:00:24;60.03;;;37.95;;
64738;SDS011;51175;51.186;0.276;2024-03-08T02:00:57;61.13;;;37.83;;
64738;SDS011;51175;51.186;0.276;2024-03-08T02:01:30;59.15;;;39.55;;
64738;SDS011;51175;51.186;0.276;2024-03-08T02:02:01;60.95;;;36.25;;
64738;SDS011;51175;51.186;0.276;2024-03-08T02:02:33;55.20;;;37.03;;
64738;SDS011;51175;51.186;0.276;2024-03-08T02:03:04;56.72;;;35.92;;
64738;SDS011;51175;51.186;0.276;2024-03-08T02:03:35;63.20;;;39.65;;
64738;SDS011;51175;51.186;0.276;2024-03-08T02:04:06;59.08;;;37.65;;
64738;SDS011;51175;51.186;0.276;2024-03-08T02:04:37;52.92;;;35.88;;
64738;SDS011;51175;51.186;0.276;2024-03-08T02:05:08;60.05;;;37.00;;
64738;SDS011;51175;51.186;0.276;2024-03-08T02:05:40;65.85;;;39.38;;
64738;SDS011;51175;51.186;0.276;2024-03-08T02:06:11;54.90;;;37.10;;
64738;SDS011;51175;51.186;0.276;2024-03-08T02:06:44;56.97;;;36.38;;
64738;SDS011;51175;51.186;0.276;2024-03-08T02:07:15;62.28;;;37.30;;
64738;SDS011;51175;51.186;0.276;2024-03-08T02:07:45;60.97;;;37.58;;
64738;SDS011;51175;51.186;0.276;2024-03-08T02:08:16;61.80;;;40.17;;
64738;SDS011;51175;51.186;0.276;2024-03-08T02:08:47;57.17;;;38.63;;
64738;SDS011;51175;51.186;0.276;2024-03-08T02:09:18;56.78;;;36.17;;
64738;SDS011;51175;51.186;0.276;2024-03-08T02:09:49;58.92;;;38.85;;
64738;SDS011;51175;51.186;0.276;2024-03-08T02:10:21;61.05;;;38.00;;
64738;SDS011;51175;51.186;0.276;2024-03-08T02:10:52;60.40;;;37.80;;
64738;SDS011;51175;51.186;0.276;2024-03-08T02:11:22;58.90;;;38.15;;
64738;SDS011;51175;51.186;0.276;2024-03-08T02:11:53;59.03;;;38.58;;
64738;SDS011;51175;51.186;0.276;2024-03-08T02:12:25;60.88;;;37.28;;
64738;SDS011;51175;51.186;0.276;2024-03-08T02:12:55;63.15;;;37.28;;
64738;SDS011;51175;51.186;0.276;2024-03-08T02:13:26;61.63;;;36.35;;
64738;SDS011;51175;51.186;0.276;2024-03-08T02:13:56;62.00;;;39.05;;
64738;SDS011;51175;51.186;0.276;2024-03-08T02:14:27;60.25;;;37.85;;
64738;SDS011;51175;51.186;0.276;2024-03-08T02:14:58;56.20;;;36.67;;
64738;SDS011;51175;51.186;0.276;2024-03-08T02:16:21;65.28;;;36.80;;
64738;SDS011;51175;51.186;0.276;2024-03-08T02:16:52;57.05;;;35.42;;
64738;SDS011;51175;51.186;0.276;2024-03-08T02:17:24;59.40;;;37.17;;
64738;SDS011;51175;51.186;0.276;2024-03-08T02:17:54;61.08;;;36.55;;
64738;SDS011;51175;51.186;0.276;2024-03-08T02:18:25;65.97;;;39.80;;
64738;SDS011;51175;51.186;0.276;2024-03-08T02:18:57;63.42;;;38.17;;
64738;SDS011;51175;51.186;0.276;2024-03-08T02:19:27;61.97;;;38.13;;
64738;SDS011;51175;51.186;0.276;2024-03-08T02:19:58;61.00;;;37.72;;
64738;SDS011;51175;51.186;0.276;2024-03-08T02:20:31;60.60;;;38.10;;
64738;SDS011;51175;51.186;0.276;2024-03-08T02:21:02;57.30;;;36.50;;
64738;SDS011;51175;51.186;0.276;2024-03-08T02:21:33;62.88;;;39.10;;
64738;SDS011;51175;51.186;0.276;2024-03-08T02:22:04;60.00;;;36.75;;
64738;SDS011;51175;51.186;0.276;2024-03-08T02:22:36;64.53;;;41.45;;
64738;SDS011;51175;51.186;0.276;2024-03-08T02:23:07;61.08;;;37.28;;
64738;SDS011;51175;51.186;0.276;2024-03-08T02:23:37;57.40;;;37.63;;
64738;SDS011;51175;51.186;0.276;2024-03-08T02:24:08;63.22;;;39.30;;
64738;SDS011;51175;51.186;0.276;2024-03-08T02:24:38;60.90;;;37.95;;
64738;SDS011;51175;51.186;0.276;2024-03-08T02:25:09;62.13;;;39.53;;
64738;SDS011;51175;51.186;0.276;2024-03-08T02:25:40;56.80;;;36.47;;
64738;SDS011;51175;51.186;0.276;2024-03-08T02:26:14;66.00;;;40.85;;
64738;SDS011;51175;51.186;0.276;2024-03-08T02:26:44;64.10;;;39.33;;
64738;SDS011;51175;51.186;0.276;2024-03-08T02:27:15;69.50;;;40.53;;
64738;SDS011;51175;51.186;0.276;2024-03-08T02:27:46;56.30;;;38.90;;
64738;SDS011;51175;51.186;0.276;2024-03-08T02:28:17;63.67;;;38.63;;
64738;SDS011;51175;51.186;0.276;2024-03-08T02:28:51;63.40;;;38.47;;
64738;SDS011;51175;51.186;0.276;2024-03-08T02:29:21;62.83;;;38.55;;
64738;SDS011;51175;51.186;0.276;2024-03-08T02:29:56;60.72;;;38.70;;
64738;SDS011;51175;51.186;0.276;2024-03-08T02:30:30;69.80;;;38.80;;
64738;SDS011;51175;51.186;0.276;2024-03-08T02:31:01;58.38;;;37.30;;
64738;SDS011;51175;51.186;0.276;2024-03-08T02:31:32;62.03;;;37.80;;
64738;SDS011;51175;51.186;0.276;2024-03-08T02:32:03;61.28;;;38.28;;
64738;SDS011;51175;51.186;0.276;2024-03-08T02:32:33;62.88;;;39.00;;
64738;SDS011;51175;51.186;0.276;2024-03-08T02:33:04;65.72;;;41.65;;
64738;SDS011;51175;51.186;0.276;2024-03-08T02:33:36;62.08;;;39.45;;
64738;SDS011;51175;51.186;0.276;2024-03-08T02:34:07;59.63;;;40.47;;
64738;SDS011;51175;51.186;0.276;2024-03-08T02:34:38;59.60;;;37.22;;
64738;SDS011;51175;51.186;0.276;2024-03-08T02:35:08;65.53;;;39.55;;
64738;SDS011;51175;51.186;0.276;2024-03-08T02:35:39;58.38;;;36.38;;
64738;SDS011;51175;51.186;0.276;2024-03-08T02:36:09;57.42;;;38.70;;
64738;SDS011;51175;51.186;0.276;2024-03-08T02:36:40;59.85;;;38.33;;
64738;SDS011;51175;51.186;0.276;2024-03-08T02:37:11;58.70;;;38.92;;
64738;SDS011;51175;51.186;0.276;2024-03-08T02:37:42;64.25;;;37.45;;
64738;SDS011;51175;51.186;0.276;2024-03-08T02:38:14;61.13;;;38.22;;
64738;SDS011;51175;51.186;0.276;2024-03-08T02:38:46;58.33;;;38.65;;
64738;SDS011;51175;51.186;0.276;2024-03-08T02:39:16;59.90;;;38.55;;
64738;SDS011;51175;51.186;0.276;2024-03-08T02:39:49;57.90;;;37.88;;
64738;SDS011;51175;51.186;0.276;2024-03-08T02:40:19;67.18;;;40.45;;
64738;SDS011;51175;51.186;0.276;2024-03-08T02:40:50;62.42;;;38.20;;
64738;SDS011;51175;51.186;0.276;2024-03-08T02:41:22;60.88;;;36.97;;
64738;SDS011;51175;51.186;0.276;2024-03-08T02:41:52;66.38;;;40.63;;
64738;SDS011;51175;51.186;0.276;2024-03-08T02:42:23;62.22;;;39.30;;
64738;SDS011;51175;51.186;0.276;2024-03-08T02:42:54;61.97;;;38.50;;
64738;SDS011;51175;51.186;0.276;2024-03-08T02:43:24;62.85;;;39.50;;
64738;SDS011;51175;51.186;0.276;2024-03-08T02:43:55;63.95;;;38.65;;
64738;SDS011;51175;51.186;0.276;2024-03-08T02:44:25;62.70;;;38.95;;
64738;SDS011;51175;51.186;0.276;2024-03-08T02:44:56;64.22;;;39.78;;
64738;SDS011;51175;51.186;0.276;2024-03-08T02:45:28;63.65;;;39.45;;
64738;SDS011;51175;51.186;0.276;2024-03-08T02:45:59;73.32;;;39.50;;
64738;SDS011;51175;51.186;0.276;2024-03-08T02:46:30;70.30;;;41.30;;
64738;SDS011;51175;51.186;0.276;2024-03-08T02:47:01;67.70;;;43.17;;
64738;SDS011;51175;51.186;0.276;2024-03-08T02:47:31;66.80;;;41.10;;
64738;SDS011;51175;51.186;0.276;2024-03-08T02:48:02;63.78;;;38.72;;
64738;SDS011;51175;51.186;0.276;2024-03-08T02:48:33;69.75;;;41.78;;
64738;SDS011;51175;51.186;0.276;2024-03-08T02:49:04;66.18;;;43.08;;
64738;SDS011;51175;51.186;0.276;2024-03-08T02:49:34;64.22;;;38.78;;
64738;SDS011;51175;51.186;0.276;2024-03-08T02:50:05;63.40;;;39.63;;
64738;SDS011;51175;51.186;0.276;2024-03-08T02:50:38;69.20;;;39.70;;
64738;SDS011;51175;51.186;0.276;2024-03-08T02:51:12;66.60;;;38.88;;
64738;SDS011;51175;51.186;0.276;2024-03-08T02:51:43;65.53;;;41.15;;
64738;SDS011;51175;51.186;0.276;2024-03-08T02:52:14;70.05;;;42.28;;
64738;SDS011;51175;51.186;0.276;2024-03-08T02:52:46;62.38;;;38.67;;
64738;SDS011;51175;51.186;0.276;2024-03-08T02:53:16;64.13;;;40.03;;
64738;SDS011;51175;51.186;0.276;2024-03-08T02:53:48;63.25;;;38.92;;
64738;SDS011;51175;51.186;0.276;2024-03-08T02:54:21;69.47;;;39.72;;
64738;SDS011;51175;51.186;0.276;2024-03-08T02:54:52;64.20;;;41.63;;
64738;SDS011;51175;51.186;0.276;2024-03-08T02:55:22;66.68;;;40.10;;
64738;SDS011;51175;51.186;0.276;2024-03-08T02:55:55;70.95;;;41.15;;
64738;SDS011;51175;51.186;0.276;2024-03-08T02:56:26;69.15;;;40.38;;
64738;SDS011;51175;51.186;0.276;2024-03-08T02:56:57;70.55;;;40.13;;
64738;SDS011;51175;51.186;0.276;2024-03-08T02:57:27;70.32;;;42.20;;
64738;SDS011;51175;51.186;0.276;2024-03-08T02:57:58;64.50;;;40.10;;
64738;SDS011;51175;51.186;0.276;2024-03-08T02:58:29;70.43;;;41.50;;
64738;SDS011;51175;51.186;0.276;2024-03-08T02:58:59;67.15;;;41.05;;
64738;SDS011;51175;51.186;0.276;2024-03-08T02:59:30;66.25;;;40.72;;
64738;SDS011;51175;51.186;0.276;2024-03-08T03:00:03;65.13;;;39.80;;
64738;SDS011;51175;51.186;0.276;2024-03-08T03:00:34;65.25;;;40.15;;
64738;SDS011;51175;51.186;0.276;2024-03-08T03:01:04;62.65;;;38.10;;
64738;SDS011;51175;51.186;0.276;2024-03-08T03:01:35;63.33;;;37.50;;
64738;SDS011;51175;51.186;0.276;2024-03-08T03:02:06;62.88;;;37.58;;
64738;SDS011;51175;51.186;0.276;2024-03-08T03:02:39;65.10;;;39.25;;
64738;SDS011;51175;51.186;0.276;2024-03-08T03:03:12;66.00;;;42.67;;
64738;SDS011;51175;51.186;0.276;2024-03-08T03:03:43;67.07;;;40.20;;
64738;SDS011;51175;51.186;0.276;2024-03-08T03:04:13;68.03;;;40.10;;
64738;SDS011;51175;51.186;0.276;2024-03-08T03:04:44;68.10;;;39.35;;